sensor_id;sensor_type;location;lat;lon;timestamp;pressure;altitude;pressure_sealevel;temperature;humidity
76994;BME280;66749;47.406;18.822;2024-03-17T00:00:00;100682.88;;;11.07;88.19
76994;BME280;66749;47.406;18.822;2024-03-17T00:00:34;100677.72;;;11.05;88.50
76994;BME280;66749;47.406;18.822;2024-03-17T00:01:05;100668.13;;;11.06;88.30
76994;BME280;66749;47.406;18.822;2024-03-17T00:01:39;100672.50;;;11.05;88.46
76994;BME280;66749;47.406;18.822;2024-03-17T00:02:12;100668.78;;;11.09;88.44
76994;BME280;66749;47.406;18.822;2024-03-17T00:02:44;100669.63;;;11.10;88.35
76994;BME280;66749;47.406;18.822;2024-03-17T00:03:15;100670.47;;;11.10;88.01
76994;BME280;66749;47.406;18.822;2024-03-17T00:03:46;100681.09;;;11.07;88.23
76994;BME280;66749;47.406;18.822;2024-03-17T00:04:17;100668.03;;;11.07;88.12
76994;BME280;66749;47.406;18.822;2024-03-17T00:04:49;100677.56;;;11.08;88.13
76994;BME280;66749;47.406;18.822;2024-03-17T00:05:20;100674.09;;;11.08;87.98
76994;BME280;66749;47.406;18.822;2024-03-17T00:05:58;100687.00;;;11.11;88.08
76994;BME280;66749;47.406;18.822;2024-03-17T00:06:30;100673.25;;;11.07;87.88
76994;BME280;66749;47.406;18.822;2024-03-17T00:07:01;100681.09;;;11.07;87.94
76994;BME280;66749;47.406;18.822;2024-03-17T00:07:32;100682.78;;;11.08;87.65
76994;BME280;66749;47.406;18.822;2024-03-17T00:08:04;100681.00;;;11.09;87.58
76994;BME280;66749;47.406;18.822;2024-03-17T00:08:37;100679.25;;;11.09;87.92
76994;BME280;66749;47.406;18.822;2024-03-17T00:09:08;100681.09;;;11.07;87.67
76994;BME280;66749;47.406;18.822;2024-03-17T00:09:40;100683.63;;;11.09;87.37
76994;BME280;66749;47.406;18.822;2024-03-17T00:10:11;100676.81;;;11.06;87.42
76994;BME280;66749;47.406;18.822;2024-03-17T00:10:42;100683.88;;;11.04;87.21
76994;BME280;66749;47.406;18.822;2024-03-17T00:11:13;100681.28;;;11.04;87.32
76994;BME280;66749;47.406;18.822;2024-03-17T00:11:44;100675.13;;;11.05;87.01
76994;BME280;66749;47.406;18.822;2024-03-17T00:12:16;100681.09;;;11.07;86.88
76994;BME280;66749;47.406;18.822;2024-03-17T00:12:46;100673.34;;;11.06;86.82
76994;BME280;66749;47.406;18.822;2024-03-17T00:13:18;100677.72;;;11.05;86.49
76994;BME280;66749;47.406;18.822;2024-03-17T00:13:48;100676.06;;;11.04;86.16
76994;BME280;66749;47.406;18.822;2024-03-17T00:14:19;100680.50;;;11.02;86.27
76994;BME280;66749;47.406;18.822;2024-03-17T00:14:50;100678.72;;;11.03;86.06
76994;BME280;66749;47.406;18.822;2024-03-17T00:15:21;100678.66;;;11.04;86.10
76994;BME280;66749;47.406;18.822;2024-03-17T00:15:53;100678.66;;;11.04;85.99
76994;BME280;66749;47.406;18.822;2024-03-17T00:16:23;100681.28;;;11.04;86.16
76994;BME280;66749;47.406;18.822;2024-03-17T00:16:55;100685.66;;;11.04;85.96
76994;BME280;66749;47.406;18.822;2024-03-17T00:17:25;100680.50;;;11.02;85.40
76994;BME280;66749;47.406;18.822;2024-03-17T00:17:56;100671.66;;;11.05;85.52
76994;BME280;66749;47.406;18.822;2024-03-17T00:18:27;100683.94;;;11.03;85.26
76994;BME280;66749;47.406;18.822;2024-03-17T00:18:58;100686.50;;;11.04;85.23
76994;BME280;66749;47.406;18.822;2024-03-17T00:19:29;100683.94;;;11.03;85.54
76994;BME280;66749;47.406;18.822;2024-03-17T00:20:03;100685.66;;;11.04;85.37
76994;BME280;66749;47.406;18.822;2024-03-17T00:20:39;100690.19;;;11.00;85.84
76994;BME280;66749;47.406;18.822;2024-03-17T00:21:10;100692.69;;;11.02;85.63
76994;BME280;66749;47.406;18.822;2024-03-17T00:21:41;100684.13;;;11.00;85.47
76994;BME280;66749;47.406;18.822;2024-03-17T00:22:12;100681.50;;;11.00;85.50
76994;BME280;66749;47.406;18.822;2024-03-17T00:22:49;100686.72;;;11.00;85.54
76994;BME280;66749;47.406;18.822;2024-03-17T00:23:21;100689.44;;;10.98;85.63
76994;BME280;66749;47.406;18.822;2024-03-17T00:23:52;100686.81;;;10.98;85.47
76994;BME280;66749;47.406;18.822;2024-03-17T00:24:23;100690.34;;;10.97;85.66
76994;BME280;66749;47.406;18.822;2024-03-17T00:24:54;100690.34;;;10.97;85.71
76994;BME280;66749;47.406;18.822;2024-03-17T00:25:25;100689.66;;;10.94;85.91
76994;BME280;66749;47.406;18.822;2024-03-17T00:25:57;100694.78;;;10.95;85.64
76994;BME280;66749;47.406;18.822;2024-03-17T00:26:28;100690.50;;;10.94;85.46
76994;BME280;66749;47.406;18.822;2024-03-17T00:27:00;100686.13;;;10.95;85.48
76994;BME280;66749;47.406;18.822;2024-03-17T00:27:31;100693.94;;;10.95;85.75
76994;BME280;66749;47.406;18.822;2024-03-17T00:28:02;100687.97;;;10.93;85.76
76994;BME280;66749;47.406;18.822;2024-03-17T00:28:33;100691.44;;;10.93;85.89
76994;BME280;66749;47.406;18.822;2024-03-17T00:29:04;100694.97;;;10.92;85.72
76994;BME280;66749;47.406;18.822;2024-03-17T00:29:35;100686.19;;;10.93;85.67
76994;BME280;66749;47.406;18.822;2024-03-17T00:30:07;100692.19;;;10.95;85.16
76994;BME280;66749;47.406;18.822;2024-03-17T00:30:43;100686.97;;;10.95;85.68
76994;BME280;66749;47.406;18.822;2024-03-17T00:31:14;100690.50;;;10.94;85.54
76994;BME280;66749;47.406;18.822;2024-03-17T00:31:47;100685.38;;;10.93;85.39
76994;BME280;66749;47.406;18.822;2024-03-17T00:32:18;100687.22;;;10.91;85.65
76994;BME280;66749;47.406;18.822;2024-03-17T00:32:49;100685.59;;;10.88;85.69
76994;BME280;66749;47.406;18.822;2024-03-17T00:33:20;100682.97;;;10.88;85.66
76994;BME280;66749;47.406;18.822;2024-03-17T00:33:53;100690.75;;;10.90;85.11
76994;BME280;66749;47.406;18.822;2024-03-17T00:34:24;100687.38;;;10.88;85.60
76994;BME280;66749;47.406;18.822;2024-03-17T00:34:55;100686.53;;;10.87;85.58
76994;BME280;66749;47.406;18.822;2024-03-17T00:35:26;100687.44;;;10.86;85.54
76994;BME280;66749;47.406;18.822;2024-03-17T00:35:59;100689.47;;;10.81;85.66
76994;BME280;66749;47.406;18.822;2024-03-17T00:36:30;100689.47;;;10.81;85.71
76994;BME280;66749;47.406;18.822;2024-03-17T00:37:02;100685.16;;;10.80;85.75
76994;BME280;66749;47.406;18.822;2024-03-17T00:37:33;100686.09;;;10.79;85.86
76994;BME280;66749;47.406;18.822;2024-03-17T00:38:04;100686.25;;;10.76;85.80
76994;BME280;66749;47.406;18.822;2024-03-17T00:38:40;100688.03;;;10.75;85.59
76994;BME280;66749;47.406;18.822;2024-03-17T00:39:12;100683.88;;;10.71;86.27
76994;BME280;66749;47.406;18.822;2024-03-17T00:39:43;100681.44;;;10.68;86.15
76994;BME280;66749;47.406;18.822;2024-03-17T00:40:13;100683.13;;;10.69;85.92
76994;BME280;66749;47.406;18.822;2024-03-17T00:40:44;100676.22;;;10.68;86.09
76994;BME280;66749;47.406;18.822;2024-03-17T00:41:15;100680.69;;;10.66;86.21
76994;BME280;66749;47.406;18.822;2024-03-17T00:41:46;100685.81;;;10.68;86.42
76994;BME280;66749;47.406;18.822;2024-03-17T00:42:17;100688.56;;;10.65;85.88
76994;BME280;66749;47.406;18.822;2024-03-17T00:42:48;100685.81;;;10.68;86.01
76994;BME280;66749;47.406;18.822;2024-03-17T00:43:19;100684.97;;;10.67;86.27
76994;BME280;66749;47.406;18.822;2024-03-17T00:43:50;100679.75;;;10.67;86.22
76994;BME280;66749;47.406;18.822;2024-03-17T00:44:22;100683.19;;;10.68;86.30
76994;BME280;66749;47.406;18.822;2024-03-17T00:44:53;100689.25;;;10.68;86.10
76994;BME280;66749;47.406;18.822;2024-03-17T00:45:24;100684.19;;;10.65;86.23
76994;BME280;66749;47.406;18.822;2024-03-17T00:45:55;100675.38;;;10.68;85.77
76994;BME280;66749;47.406;18.822;2024-03-17T00:46:26;100680.50;;;10.69;85.71
76994;BME280;66749;47.406;18.822;2024-03-17T00:46:56;100689.94;;;10.72;85.92
76994;BME280;66749;47.406;18.822;2024-03-17T00:47:27;100679.50;;;10.72;85.99
76994;BME280;66749;47.406;18.822;2024-03-17T00:47:58;100678.75;;;10.70;86.25
76994;BME280;66749;47.406;18.822;2024-03-17T00:48:29;100677.81;;;10.71;85.92
76994;BME280;66749;47.406;18.822;2024-03-17T00:49:00;100680.34;;;10.72;85.89
76994;BME280;66749;47.406;18.822;2024-03-17T00:49:31;100682.09;;;10.72;85.89
76994;BME280;66749;47.406;18.822;2024-03-17T00:50:02;100682.28;;;10.69;86.08
76994;BME280;66749;47.406;18.822;2024-03-17T00:50:34;100683.19;;;10.68;85.87
76994;BME280;66749;47.406;18.822;2024-03-17T00:51:05;100685.72;;;10.69;85.64
76994;BME280;66749;47.406;18.822;2024-03-17T00:51:36;100683.19;;;10.68;86.45
76994;BME280;66749;47.406;18.822;2024-03-17T00:52:07;100682.19;;;10.70;86.03
76994;BME280;66749;47.406;18.822;2024-03-17T00:52:38;100678.75;;;10.70;85.71
76994;BME280;66749;47.406;18.822;2024-03-17T00:53:09;100680.50;;;10.69;85.66
76994;BME280;66749;47.406;18.822;2024-03-17T00:53:40;100689.25;;;10.68;85.90
76994;BME280;66749;47.406;18.822;2024-03-17T00:54:11;100683.19;;;10.68;85.93
76994;BME280;66749;47.406;18.822;2024-03-17T00:54:42;100680.59;;;10.68;85.94
76994;BME280;66749;47.406;18.822;2024-03-17T00:55:13;100680.72;;;10.65;86.00
76994;BME280;66749;47.406;18.822;2024-03-17T00:55:51;100681.53;;;10.67;85.77
76994;BME280;66749;47.406;18.822;2024-03-17T00:56:22;100683.19;;;10.68;86.06
76994;BME280;66749;47.406;18.822;2024-03-17T00:56:53;100683.13;;;10.69;85.75
76994;BME280;66749;47.406;18.822;2024-03-17T00:57:23;100683.88;;;10.71;85.95
76994;BME280;66749;47.406;18.822;2024-03-17T00:57:54;100688.56;;;10.65;86.22
76994;BME280;66749;47.406;18.822;2024-03-17T00:58:25;100693.72;;;10.66;85.94
76994;BME280;66749;47.406;18.822;2024-03-17T00:58:56;100688.56;;;10.65;86.24
76994;BME280;66749;47.406;18.822;2024-03-17T00:59:27;100689.75;;;10.59;86.38
76994;BME280;66749;47.406;18.822;2024-03-17T00:59:58;100681.56;;;10.65;85.95
76994;BME280;66749;47.406;18.822;2024-03-17T01:00:29;100689.41;;;10.65;86.20
76994;BME280;66749;47.406;18.822;2024-03-17T01:01:00;100686.75;;;10.67;85.67
76994;BME280;66749;47.406;18.822;2024-03-17T01:01:31;100684.13;;;10.67;86.34
76994;BME280;66749;47.406;18.822;2024-03-17T01:02:02;100685.91;;;10.66;85.98
76994;BME280;66749;47.406;18.822;2024-03-17T01:02:33;100692.81;;;10.67;86.40
76994;BME280;66749;47.406;18.822;2024-03-17T01:03:04;100685.94;;;10.65;86.28
76994;BME280;66749;47.406;18.822;2024-03-17T01:03:35;100684.19;;;10.65;85.95
76994;BME280;66749;47.406;18.822;2024-03-17T01:04:06;100684.97;;;10.67;85.99
76994;BME280;66749;47.406;18.822;2024-03-17T01:04:37;100685.06;;;10.66;86.37
76994;BME280;66749;47.406;18.822;2024-03-17T01:05:08;100685.06;;;10.66;85.85
76994;BME280;66749;47.406;18.822;2024-03-17T01:05:39;100682.66;;;10.61;86.38
76994;BME280;66749;47.406;18.822;2024-03-17T01:06:15;100689.56;;;10.62;85.99
76994;BME280;66749;47.406;18.822;2024-03-17T01:06:46;100678.13;;;10.65;86.24
76994;BME280;66749;47.406;18.822;2024-03-17T01:07:17;100687.81;;;10.63;86.24
76994;BME280;66749;47.406;18.822;2024-03-17T01:07:48;100681.75;;;10.62;86.29
76994;BME280;66749;47.406;18.822;2024-03-17T01:08:20;100685.19;;;10.63;85.93
76994;BME280;66749;47.406;18.822;2024-03-17T01:08:51;100685.94;;;10.65;86.18
76994;BME280;66749;47.406;18.822;2024-03-17T01:09:23;100686.78;;;10.65;86.12
76994;BME280;66749;47.406;18.822;2024-03-17T01:09:53;100688.66;;;10.63;86.24
76994;BME280;66749;47.406;18.822;2024-03-17T01:10:25;100686.88;;;10.64;86.38
76994;BME280;66749;47.406;18.822;2024-03-17T01:10:56;100682.59;;;10.63;85.89
76994;BME280;66749;47.406;18.822;2024-03-17T01:11:29;100686.13;;;10.62;86.20
76994;BME280;66749;47.406;18.822;2024-03-17T01:11:59;100685.44;;;10.58;86.36
76994;BME280;66749;47.406;18.822;2024-03-17T01:12:30;100689.88;;;10.56;86.45
76994;BME280;66749;47.406;18.822;2024-03-17T01:13:01;100689.03;;;10.55;86.60
76994;BME280;66749;47.406;18.822;2024-03-17T01:13:32;100684.66;;;10.56;86.44
76994;BME280;66749;47.406;18.822;2024-03-17T01:14:05;100686.44;;;10.55;86.45
76994;BME280;66749;47.406;18.822;2024-03-17T01:14:35;100678.59;;;10.55;86.72
76994;BME280;66749;47.406;18.822;2024-03-17T01:15:07;100686.50;;;10.54;86.70
76994;BME280;66749;47.406;18.822;2024-03-17T01:15:39;100689.88;;;10.56;86.28
76994;BME280;66749;47.406;18.822;2024-03-17T01:16:10;100686.34;;;10.57;86.39
76994;BME280;66749;47.406;18.822;2024-03-17T01:16:41;100685.50;;;10.56;86.43
76994;BME280;66749;47.406;18.822;2024-03-17T01:17:12;100687.28;;;10.56;86.27
76994;BME280;66749;47.406;18.822;2024-03-17T01:17:43;100685.50;;;10.56;86.42
76994;BME280;66749;47.406;18.822;2024-03-17T01:18:14;100684.56;;;10.57;86.39
76994;BME280;66749;47.406;18.822;2024-03-17T01:18:45;100685.44;;;10.58;86.58
76994;BME280;66749;47.406;18.822;2024-03-17T01:19:16;100680.28;;;10.56;86.38
76994;BME280;66749;47.406;18.822;2024-03-17T01:19:47;100681.28;;;10.54;86.29
76994;BME280;66749;47.406;18.822;2024-03-17T01:20:18;100682.13;;;10.54;86.32
76994;BME280;66749;47.406;18.822;2024-03-17T01:20:48;100676.91;;;10.54;86.09
76994;BME280;66749;47.406;18.822;2024-03-17T01:21:20;100685.69;;;10.53;86.27
76994;BME280;66749;47.406;18.822;2024-03-17T01:21:51;100681.47;;;10.51;86.63
76994;BME280;66749;47.406;18.822;2024-03-17T01:22:22;100679.69;;;10.51;86.68
76994;BME280;66749;47.406;18.822;2024-03-17T01:22:53;100678.00;;;10.50;86.49
76994;BME280;66749;47.406;18.822;2024-03-17T01:23:23;100672.78;;;10.50;86.60
76994;BME280;66749;47.406;18.822;2024-03-17T01:23:54;100670.19;;;10.50;86.26
76994;BME280;66749;47.406;18.822;2024-03-17T01:24:25;100677.13;;;10.50;86.62
76994;BME280;66749;47.406;18.822;2024-03-17T01:24:58;100677.22;;;10.48;86.20
76994;BME280;66749;47.406;18.822;2024-03-17T01:25:29;100675.53;;;10.47;86.60
76994;BME280;66749;47.406;18.822;2024-03-17T01:26:00;100675.53;;;10.47;86.30
76994;BME280;66749;47.406;18.822;2024-03-17T01:26:31;100670.31;;;10.47;86.27
76994;BME280;66749;47.406;18.822;2024-03-17T01:27:02;100670.50;;;10.44;86.64
76994;BME280;66749;47.406;18.822;2024-03-17T01:27:33;100665.41;;;10.41;86.79
76994;BME280;66749;47.406;18.822;2024-03-17T01:28:04;100664.44;;;10.44;86.30
76994;BME280;66749;47.406;18.822;2024-03-17T01:28:35;100666.25;;;10.42;86.54
76994;BME280;66749;47.406;18.822;2024-03-17T01:29:06;100666.44;;;10.39;86.85
76994;BME280;66749;47.406;18.822;2024-03-17T01:29:39;100660.19;;;10.41;86.90
76994;BME280;66749;47.406;18.822;2024-03-17T01:30:11;100665.50;;;10.40;86.80
76994;BME280;66749;47.406;18.822;2024-03-17T01:30:42;100666.34;;;10.40;87.05
76994;BME280;66749;47.406;18.822;2024-03-17T01:31:13;100668.09;;;10.40;86.85
76994;BME280;66749;47.406;18.822;2024-03-17T01:31:44;100667.28;;;10.39;86.91
76994;BME280;66749;47.406;18.822;2024-03-17T01:32:15;100657.84;;;10.37;86.74
76994;BME280;66749;47.406;18.822;2024-03-17T01:32:46;100659.59;;;10.36;87.41
76994;BME280;66749;47.406;18.822;2024-03-17T01:33:17;100662.28;;;10.35;87.83
76994;BME280;66749;47.406;18.822;2024-03-17T01:33:48;100663.91;;;10.37;87.30
76994;BME280;66749;47.406;18.822;2024-03-17T01:34:19;100661.44;;;10.34;87.29
76994;BME280;66749;47.406;18.822;2024-03-17T01:34:51;100670.19;;;10.33;87.93
76994;BME280;66749;47.406;18.822;2024-03-17T01:35:21;100664.19;;;10.31;87.73
76994;BME280;66749;47.406;18.822;2024-03-17T01:35:53;100666.81;;;10.31;87.75
76994;BME280;66749;47.406;18.822;2024-03-17T01:36:24;100660.66;;;10.32;87.79
76994;BME280;66749;47.406;18.822;2024-03-17T01:36:55;100669.41;;;10.31;87.68
76994;BME280;66749;47.406;18.822;2024-03-17T01:37:26;100661.38;;;10.36;87.86
76994;BME280;66749;47.406;18.822;2024-03-17T01:37:56;100662.22;;;10.36;87.96
76994;BME280;66749;47.406;18.822;2024-03-17T01:38:27;100668.28;;;10.37;88.02
76994;BME280;66749;47.406;18.822;2024-03-17T01:38:59;100664.81;;;10.36;87.92
76994;BME280;66749;47.406;18.822;2024-03-17T01:39:30;100671.94;;;10.33;88.03
76994;BME280;66749;47.406;18.822;2024-03-17T01:40:02;100669.41;;;10.31;88.15
76994;BME280;66749;47.406;18.822;2024-03-17T01:40:35;100670.09;;;10.35;87.90
76994;BME280;66749;47.406;18.822;2024-03-17T01:41:06;100670.94;;;10.35;87.97
76994;BME280;66749;47.406;18.822;2024-03-17T01:41:38;100666.81;;;10.31;87.99
76994;BME280;66749;47.406;18.822;2024-03-17T01:42:09;100671.94;;;10.33;88.03
76994;BME280;66749;47.406;18.822;2024-03-17T01:42:41;100676.16;;;10.35;87.92
76994;BME280;66749;47.406;18.822;2024-03-17T01:43:12;100671.88;;;10.34;87.92
76994;BME280;66749;47.406;18.822;2024-03-17T01:43:43;100677.91;;;10.35;88.17
76994;BME280;66749;47.406;18.822;2024-03-17T01:44:25;100673.63;;;10.34;87.76
76994;BME280;66749;47.406;18.822;2024-03-17T01:44:57;100673.53;;;10.35;87.74
76994;BME280;66749;47.406;18.822;2024-03-17T01:45:31;100683.75;;;10.40;87.50
76994;BME280;66749;47.406;18.822;2024-03-17T01:46:02;100676.09;;;10.37;87.75
76994;BME280;66749;47.406;18.822;2024-03-17T01:46:33;100678.84;;;10.34;87.52
76994;BME280;66749;47.406;18.822;2024-03-17T01:47:05;100679.84;;;10.31;87.98
76994;BME280;66749;47.406;18.822;2024-03-17T01:47:35;100681.53;;;10.32;87.80
76994;BME280;66749;47.406;18.822;2024-03-17T01:48:13;100682.38;;;10.33;87.90
76994;BME280;66749;47.406;18.822;2024-03-17T01:48:50;100683.38;;;10.30;87.92
76994;BME280;66749;47.406;18.822;2024-03-17T01:49:22;100685.25;;;10.28;88.05
76994;BME280;66749;47.406;18.822;2024-03-17T01:49:54;100686.00;;;10.30;88.14
76994;BME280;66749;47.406;18.822;2024-03-17T01:50:31;100688.59;;;10.30;88.10
76994;BME280;66749;47.406;18.822;2024-03-17T01:51:03;100685.16;;;10.30;88.19
76994;BME280;66749;47.406;18.822;2024-03-17T01:51:34;100687.75;;;10.30;87.88
76994;BME280;66749;47.406;18.822;2024-03-17T01:52:05;100686.94;;;10.29;88.34
76994;BME280;66749;47.406;18.822;2024-03-17T01:52:37;100680.06;;;10.26;88.44
76994;BME280;66749;47.406;18.822;2024-03-17T01:53:11;100679.22;;;10.26;88.30
76994;BME280;66749;47.406;18.822;2024-03-17T01:53:44;100681.94;;;10.24;88.17
76994;BME280;66749;47.406;18.822;2024-03-17T01:54:15;100691.31;;;10.28;88.22
76994;BME280;66749;47.406;18.822;2024-03-17T01:54:46;100680.06;;;10.26;88.32
76994;BME280;66749;47.406;18.822;2024-03-17T01:55:18;100686.09;;;10.28;88.01
76994;BME280;66749;47.406;18.822;2024-03-17T01:55:49;100682.69;;;10.26;88.43
76994;BME280;66749;47.406;18.822;2024-03-17T01:56:20;100687.84;;;10.28;88.22
76994;BME280;66749;47.406;18.822;2024-03-17T01:56:51;100686.94;;;10.29;88.30
76994;BME280;66749;47.406;18.822;2024-03-17T01:57:22;100686.97;;;10.27;88.44
76994;BME280;66749;47.406;18.822;2024-03-17T01:57:53;100686.97;;;10.27;88.22
76994;BME280;66749;47.406;18.822;2024-03-17T01:58:27;100681.84;;;10.26;88.60
76994;BME280;66749;47.406;18.822;2024-03-17T01:59:01;100684.31;;;10.29;88.37
76994;BME280;66749;47.406;18.822;2024-03-17T01:59:32;100682.63;;;10.28;88.03
76994;BME280;66749;47.406;18.822;2024-03-17T02:00:04;100679.31;;;10.24;88.31
76994;BME280;66749;47.406;18.822;2024-03-17T02:00:39;100687.06;;;10.26;88.51
76994;BME280;66749;47.406;18.822;2024-03-17T02:01:11;100680.25;;;10.23;88.94
76994;BME280;66749;47.406;18.822;2024-03-17T02:01:45;100688.91;;;10.24;88.38
76994;BME280;66749;47.406;18.822;2024-03-17T02:02:16;100687.22;;;10.23;88.61
76994;BME280;66749;47.406;18.822;2024-03-17T02:02:47;100700.25;;;10.23;88.81
76994;BME280;66749;47.406;18.822;2024-03-17T02:03:18;100693.34;;;10.22;88.66
76994;BME280;66749;47.406;18.822;2024-03-17T02:03:48;100698.41;;;10.25;88.72
76994;BME280;66749;47.406;18.822;2024-03-17T02:04:19;100689.84;;;10.23;88.64
76994;BME280;66749;47.406;18.822;2024-03-17T02:04:52;100688.19;;;10.20;88.73
76994;BME280;66749;47.406;18.822;2024-03-17T02:05:23;100684.66;;;10.21;88.43
76994;BME280;66749;47.406;18.822;2024-03-17T02:05:54;100691.59;;;10.22;88.88
76994;BME280;66749;47.406;18.822;2024-03-17T02:06:25;100701.03;;;10.25;88.92
76994;BME280;66749;47.406;18.822;2024-03-17T02:06:56;100695.94;;;10.22;88.53
76994;BME280;66749;47.406;18.822;2024-03-17T02:07:27;100695.94;;;10.22;88.73
76994;BME280;66749;47.406;18.822;2024-03-17T02:07:57;100693.19;;;10.25;88.85
76994;BME280;66749;47.406;18.822;2024-03-17T02:08:28;100692.28;;;10.26;88.65
76994;BME280;66749;47.406;18.822;2024-03-17T02:09:00;100695.81;;;10.25;88.99
76994;BME280;66749;47.406;18.822;2024-03-17T02:09:31;100690.72;;;10.22;88.67
76994;BME280;66749;47.406;18.822;2024-03-17T02:10:02;100701.16;;;10.22;88.94
76994;BME280;66749;47.406;18.822;2024-03-17T02:10:39;100690.69;;;10.23;88.77
76994;BME280;66749;47.406;18.822;2024-03-17T02:11:57;100695.88;;;10.23;89.06
76994;BME280;66749;47.406;18.822;2024-03-17T02:12:28;100690.72;;;10.22;88.83
76994;BME280;66749;47.406;18.822;2024-03-17T02:13:00;100689.94;;;10.20;88.64
76994;BME280;66749;47.406;18.822;2024-03-17T02:13:31;100688.19;;;10.20;89.05
76994;BME280;66749;47.406;18.822;2024-03-17T02:14:02;100692.53;;;10.20;88.80
76994;BME280;66749;47.406;18.822;2024-03-17T02:14:33;100692.44;;;10.23;88.99
76994;BME280;66749;47.406;18.822;2024-03-17T02:15:04;100686.44;;;10.21;88.73
76994;BME280;66749;47.406;18.822;2024-03-17T02:15:36;100686.47;;;10.19;88.93
76994;BME280;66749;47.406;18.822;2024-03-17T02:16:07;100684.81;;;10.18;88.74
76994;BME280;66749;47.406;18.822;2024-03-17T02:16:38;100692.63;;;10.18;88.98
76994;BME280;66749;47.406;18.822;2024-03-17T02:17:09;100690.00;;;10.18;88.82
76994;BME280;66749;47.406;18.822;2024-03-17T02:17:40;100696.06;;;10.19;88.71
76994;BME280;66749;47.406;18.822;2024-03-17T02:18:11;100696.88;;;10.21;88.88
76994;BME280;66749;47.406;18.822;2024-03-17T02:18:42;100689.03;;;10.21;88.88
76994;BME280;66749;47.406;18.822;2024-03-17T02:19:13;100694.38;;;10.18;88.92
76994;BME280;66749;47.406;18.822;2024-03-17T02:19:43;100696.88;;;10.21;88.55
76994;BME280;66749;47.406;18.822;2024-03-17T02:20:14;100684.66;;;10.21;88.83
76994;BME280;66749;47.406;18.822;2024-03-17T02:20:45;100690.94;;;10.17;88.69
76994;BME280;66749;47.406;18.822;2024-03-17T02:21:31;100693.63;;;10.16;88.84
76994;BME280;66749;47.406;18.822;2024-03-17T02:22:02;100695.41;;;10.15;89.11
76994;BME280;66749;47.406;18.822;2024-03-17T02:22:40;100687.50;;;10.17;88.71
76994;BME280;66749;47.406;18.822;2024-03-17T02:23:11;100690.00;;;10.18;89.07
76994;BME280;66749;47.406;18.822;2024-03-17T02:23:43;100691.03;;;10.16;89.08
76994;BME280;66749;47.406;18.822;2024-03-17T02:24:13;100687.56;;;10.15;89.05
76994;BME280;66749;47.406;18.822;2024-03-17T02:24:44;100696.91;;;10.19;89.26
76994;BME280;66749;47.406;18.822;2024-03-17T02:25:15;100690.94;;;10.17;88.88
76994;BME280;66749;47.406;18.822;2024-03-17T02:25:46;100689.03;;;10.21;88.77
76994;BME280;66749;47.406;18.822;2024-03-17T02:26:18;100697.75;;;10.20;89.05
76994;BME280;66749;47.406;18.822;2024-03-17T02:26:49;100694.38;;;10.18;88.89
76994;BME280;66749;47.406;18.822;2024-03-17T02:27:20;100687.31;;;10.20;89.16
76994;BME280;66749;47.406;18.822;2024-03-17T02:27:51;100690.81;;;10.20;89.02
76994;BME280;66749;47.406;18.822;2024-03-17T02:28:22;100691.69;;;10.19;88.72
76994;BME280;66749;47.406;18.822;2024-03-17T02:28:53;100698.75;;;10.17;89.00
76994;BME280;66749;47.406;18.822;2024-03-17T02:29:24;100696.25;;;10.16;89.09
76994;BME280;66749;47.406;18.822;2024-03-17T02:29:55;100691.19;;;10.13;89.13
76994;BME280;66749;47.406;18.822;2024-03-17T02:30:26;100698.94;;;10.14;89.08
76994;BME280;66749;47.406;18.822;2024-03-17T02:30:56;100700.63;;;10.15;89.29
76994;BME280;66749;47.406;18.822;2024-03-17T02:31:27;100698.75;;;10.17;89.58
76994;BME280;66749;47.406;18.822;2024-03-17T02:31:58;100692.06;;;10.12;89.40
76994;BME280;66749;47.406;18.822;2024-03-17T02:32:29;100691.94;;;10.15;89.17
76994;BME280;66749;47.406;18.822;2024-03-17T02:33:00;100690.09;;;10.17;89.17
76994;BME280;66749;47.406;18.822;2024-03-17T02:33:31;100690.19;;;10.15;88.99
76994;BME280;66749;47.406;18.822;2024-03-17T02:34:01;100687.50;;;10.17;89.25
76994;BME280;66749;47.406;18.822;2024-03-17T02:34:36;100695.41;;;10.15;88.97
76994;BME280;66749;47.406;18.822;2024-03-17T02:35:08;100690.19;;;10.15;88.93
76994;BME280;66749;47.406;18.822;2024-03-17T02:35:38;100690.00;;;10.18;89.17
76994;BME280;66749;47.406;18.822;2024-03-17T02:36:10;100683.03;;;10.19;89.16
76994;BME280;66749;47.406;18.822;2024-03-17T02:36:42;100684.88;;;10.17;89.03
76994;BME280;66749;47.406;18.822;2024-03-17T02:37:13;100677.81;;;10.19;89.18
76994;BME280;66749;47.406;18.822;2024-03-17T02:37:44;100683.97;;;10.18;89.14
76994;BME280;66749;47.406;18.822;2024-03-17T02:38:17;100684.97;;;10.15;89.25
76994;BME280;66749;47.406;18.822;2024-03-17T02:39:11;100685.81;;;10.16;89.06
76994;BME280;66749;47.406;18.822;2024-03-17T02:40:00;100685.03;;;10.14;89.02
76994;BME280;66749;47.406;18.822;2024-03-17T02:40:31;100678.75;;;10.18;89.36
76994;BME280;66749;47.406;18.822;2024-03-17T02:41:02;100688.34;;;10.17;89.06
76994;BME280;66749;47.406;18.822;2024-03-17T02:41:33;100690.84;;;10.19;88.94
76994;BME280;66749;47.406;18.822;2024-03-17T02:42:08;100690.94;;;10.17;89.19
76994;BME280;66749;47.406;18.822;2024-03-17T02:42:39;100693.56;;;10.17;89.30
76994;BME280;66749;47.406;18.822;2024-03-17T02:43:12;100689.34;;;10.15;88.88
76994;BME280;66749;47.406;18.822;2024-03-17T02:43:43;100687.50;;;10.17;89.10
76994;BME280;66749;47.406;18.822;2024-03-17T02:44:14;100683.38;;;10.13;89.11